Time;durP1;ratioP1;P1;durP2;ratioP2;P2;SDS_P1;SDS_P2;PMS_P1;PMS_P2;Temp;Humidity;BMP_temperature;BMP_pressure;BME280_temperature;BME280_humidity;BME280_pressure;Samples;Min_cycle;Max_cycle;Signal;HPM_P1;HPM_P2
2022/01/26 00:07:28;;;;;;;;;17.75;15.25;;;;;;;;5006848;28;45460;-72
2022/01/26 00:09:53;;;;;;;;;17.75;17.00;;;;;;;;5004716;28;45706;-72
2022/01/26 00:12:18;;;;;;;;;16.75;15.75;;;;;;;;5001657;28;45411;-72
2022/01/26 00:14:44;;;;;;;;;19.00;16.50;;;;;;;;5007083;28;45486;-72
2022/01/26 00:17:11;;;;;;;;;16.50;15.75;;;;;;;;5008046;28;46172;-70
2022/01/26 00:22:32;;;;;;;;;17.00;17.00;;;;;;;;5013140;28;46640;-70
2022/01/26 00:41:04;;;;;;;;;18.75;17.75;;;;;;;;4982685;28;45337;-70
2022/01/26 00:43:29;;;;;;;;;17.50;16.50;;;;;;;;5031321;28;45510;-70
2022/01/26 00:45:57;;;;;;;;;18.50;18.00;;;;;;;;5032391;28;45434;-70
2022/01/26 00:48:23;;;;;;;;;21.25;17.50;;;;;;;;5031728;28;46493;-70
2022/01/26 00:50:52;;;;;;;;;17.50;14.25;;;;;;;;5029927;28;45505;-70
2022/01/26 00:53:20;;;;;;;;;16.25;14.25;;;;;;;;5029303;28;45488;-70
2022/01/26 00:55:45;;;;;;;;;16.50;16.00;;;;;;;;5030910;28;45623;-70
2022/01/26 00:58:10;;;;;;;;;18.25;17.00;;;;;;;;5030416;28;45373;-70
2022/01/26 01:00:36;;;;;;;;;21.75;17.75;;;;;;;;5032346;28;45429;-70
2022/01/26 01:03:01;;;;;;;;;22.25;17.25;;;;;;;;5028634;28;45611;-70
2022/01/26 01:05:34;;;;;;;;;19.25;17.75;;;;;;;;5028686;28;45498;-70
2022/01/26 01:08:07;;;;;;;;;22.25;19.25;;;;;;;;5029432;28;45479;-70
2022/01/26 01:10:33;;;;;;;;;21.50;18.50;;;;;;;;5069440;27;45503;-70
2022/01/26 01:12:59;;;;;;;;;16.00;16.00;;;;;;;;5075974;27;45334;-70
2022/01/26 01:15:25;;;;;;;;;20.00;16.75;;;;;;;;5082563;27;45472;-71
2022/01/26 01:17:55;;;;;;;;;19.00;15.50;;;;;;;;5075787;27;46198;-70
2022/01/26 01:21:30;;;;;;;;;20.50;18.50;;;;;;;;5073304;28;45371;-70
2022/01/26 01:28:45;;;;;;;;;21.00;16.25;;;;;;;;5075882;27;45390;-70
2022/01/26 01:31:16;;;;;;;;;17.25;17.25;;;;;;;;5072702;28;45622;-70
2022/01/26 01:33:47;;;;;;;;;18.00;16.00;;;;;;;;5070780;28;45329;-70
2022/01/26 01:36:13;;;;;;;;;24.00;16.00;;;;;;;;5077736;27;45551;-70
2022/01/26 01:38:43;;;;;;;;;18.75;18.00;;;;;;;;5073950;27;47279;-70
2022/01/26 01:41:09;;;;;;;;;18.50;17.25;;;;;;;;5072473;27;45482;-70
2022/01/26 01:43:34;;;;;;;;;20.00;17.50;;;;;;;;5086789;27;45284;-70
2022/01/26 01:45:59;;;;;;;;;19.00;17.75;;;;;;;;5073500;28;45426;-70
2022/01/26 01:48:29;;;;;;;;;18.50;18.25;;;;;;;;5074041;28;46023;-70
2022/01/26 01:50:56;;;;;;;;;24.75;18.50;;;;;;;;5075636;27;45408;-70
2022/01/26 01:53:29;;;;;;;;;21.75;19.50;;;;;;;;5076364;28;45526;-70
2022/01/26 01:55:54;;;;;;;;;20.50;17.50;;;;;;;;5074992;28;45533;-70
2022/01/26 01:58:20;;;;;;;;;22.25;18.75;;;;;;;;5082928;27;45390;-70
2022/01/26 02:00:45;;;;;;;;;19.50;18.00;;;;;;;;5078368;28;45346;-71
2022/01/26 02:03:10;;;;;;;;;19.25;17.00;;;;;;;;5082931;27;45366;-70
2022/01/26 02:05:35;;;;;;;;;18.75;17.50;;;;;;;;5086763;27;45627;-70
2022/01/26 02:08:01;;;;;;;;;19.25;15.50;;;;;;;;5084834;27;45822;-70
2022/01/26 02:10:29;;;;;;;;;18.25;18.00;;;;;;;;5086436;27;46801;-70
2022/01/26 02:12:56;;;;;;;;;17.00;16.00;;;;;;;;5079036;27;45415;-70
2022/01/26 02:15:27;;;;;;;;;19.00;15.50;;;;;;;;5077471;28;45645;-70
2022/01/26 02:55:40;;;;;;;;;19.50;16.25;;;;;;;;5088891;27;46097;-70
2022/01/26 03:06:03;;;;;;;;;18.75;17.50;;;;;;;;5074929;28;45455;-70
2022/01/26 03:08:34;;;;;;;;;22.25;20.50;;;;;;;;5075011;27;45504;-70
2022/01/26 03:11:06;;;;;;;;;20.75;17.50;;;;;;;;5075331;28;46900;-70
2022/01/26 03:13:33;;;;;;;;;20.50;18.00;;;;;;;;5074706;28;46409;-71
2022/01/26 03:16:28;;;;;;;;;21.25;18.50;;;;;;;;5076448;28;45692;-70
2022/01/26 03:21:28;;;;;;;;;19.25;17.75;;;;;;;;5082690;27;46148;-70
2022/01/26 03:29:41;;;;;;;;;20.25;19.00;;;;;;;;5078544;27;45534;-70
2022/01/26 03:34:40;;;;;;;;;17.50;15.50;;;;;;;;5074813;28;45296;-71
2022/01/26 03:37:08;;;;;;;;;20.25;19.25;;;;;;;;5074920;28;45907;-70
2022/01/26 03:39:41;;;;;;;;;19.50;16.50;;;;;;;;5077163;28;45399;-70
2022/01/26 03:42:09;;;;;;;;;19.75;19.00;;;;;;;;5078516;27;46949;-70
2022/01/26 03:44:35;;;;;;;;;24.50;18.50;;;;;;;;5079030;27;45492;-70
2022/01/26 03:47:00;;;;;;;;;3.00;3.00;;;;;;;;5074410;28;45471;-70
2022/01/26 03:49:26;;;;;;;;;18.75;18.00;;;;;;;;5074698;28;45485;-70
2022/01/26 03:51:51;;;;;;;;;19.75;19.00;;;;;;;;5082141;27;46717;-70
2022/01/26 03:54:18;;;;;;;;;22.25;18.50;;;;;;;;5075226;28;45312;-70
2022/01/26 03:56:43;;;;;;;;;22.75;21.25;;;;;;;;5074654;28;45432;-70
2022/01/26 03:59:08;;;;;;;;;21.50;17.75;;;;;;;;5073843;28;45691;-71
2022/01/26 04:01:34;;;;;;;;;18.75;18.75;;;;;;;;5073095;28;46161;-70
2022/01/26 04:03:59;;;;;;;;;25.50;21.00;;;;;;;;5074538;28;45332;-70
2022/01/26 04:06:25;;;;;;;;;21.50;18.25;;;;;;;;5078154;27;45585;-70
2022/01/26 04:08:51;;;;;;;;;19.25;16.25;;;;;;;;5076023;27;45379;-70
2022/01/26 04:13:41;;;;;;;;;18.50;18.50;;;;;;;;5077004;27;45174;-70
2022/01/26 04:16:07;;;;;;;;;24.25;20.25;;;;;;;;5074387;28;45499;-71
2022/01/26 04:18:36;;;;;;;;;22.50;20.00;;;;;;;;5076355;28;45422;-69
2022/01/26 04:21:10;;;;;;;;;22.25;18.75;;;;;;;;5073761;28;46643;-70
2022/01/26 04:23:51;;;;;;;;;19.25;17.50;;;;;;;;5072782;27;45512;-70
2022/01/26 04:26:20;;;;;;;;;25.25;22.00;;;;;;;;5072624;27;45504;-70
2022/01/26 04:28:55;;;;;;;;;20.50;18.00;;;;;;;;5073829;27;45332;-70
2022/01/26 04:31:21;;;;;;;;;24.25;19.00;;;;;;;;5056217;28;46047;-71
2022/01/26 04:33:47;;;;;;;;;22.25;19.75;;;;;;;;5075548;28;45814;-70
2022/01/26 04:36:16;;;;;;;;;21.75;18.50;;;;;;;;5076642;27;45477;-71
2022/01/26 04:38:44;;;;;;;;;22.00;20.50;;;;;;;;5072602;28;45597;-70
2022/01/26 04:41:47;;;;;;;;;19.50;17.50;;;;;;;;5075346;27;46335;-70
2022/01/26 04:44:10;;;;;;;;;19.50;17.50;;;;;;;;5072122;28;45277;-70
2022/01/26 04:46:35;;;;;;;;;22.25;18.75;;;;;;;;5074519;28;45514;-70
2022/01/26 04:49:01;;;;;;;;;16.25;15.50;;;;;;;;5074765;27;45490;-70
2022/01/26 04:51:26;;;;;;;;;20.25;17.00;;;;;;;;5075922;28;46142;-70
2022/01/26 04:53:51;;;;;;;;;21.25;18.00;;;;;;;;5075927;27;45263;-71
2022/01/26 04:56:16;;;;;;;;;17.50;17.25;;;;;;;;5073357;27;45471;-71
2022/01/26 04:58:41;;;;;;;;;23.50;18.50;;;;;;;;5073418;28;45538;-71
2022/01/26 05:01:07;;;;;;;;;22.50;16.75;;;;;;;;5086077;27;45431;-70
2022/01/26 05:03:32;;;;;;;;;20.50;17.25;;;;;;;;5075686;28;45408;-70
2022/01/26 05:05:57;;;;;;;;;23.50;20.25;;;;;;;;5073344;28;45536;-70
2022/01/26 05:08:23;;;;;;;;;22.25;19.50;;;;;;;;5072082;27;45379;-70
2022/01/26 05:10:48;;;;;;;;;20.25;18.00;;;;;;;;5072663;28;45518;-70
2022/01/26 05:13:15;;;;;;;;;22.00;19.00;;;;;;;;5074628;27;45507;-70
2022/01/26 05:15:41;;;;;;;;;20.50;19.00;;;;;;;;5075532;28;45364;-70
2022/01/26 05:18:06;;;;;;;;;20.75;19.00;;;;;;;;5073310;28;45263;-70
2022/01/26 05:20:32;;;;;;;;;12.75;9.00;;;;;;;;5073209;28;47230;-70
2022/01/26 05:22:58;;;;;;;;;19.25;18.00;;;;;;;;5073068;28;46350;-70
2022/01/26 05:25:23;;;;;;;;;19.25;17.00;;;;;;;;5077571;27;45320;-70
2022/01/26 05:27:48;;;;;;;;;17.00;16.50;;;;;;;;5078736;28;45254;-71
2022/01/26 05:30:13;;;;;;;;;17.75;17.75;;;;;;;;5077011;28;45268;-70
2022/01/26 05:32:39;;;;;;;;;16.00;16.00;;;;;;;;5076744;27;45542;-70
2022/01/26 05:35:04;;;;;;;;;21.50;17.50;;;;;;;;5077241;27;45569;-70
2022/01/26 05:37:29;;;;;;;;;23.50;18.75;;;;;;;;5076867;28;45503;-70
2022/01/26 05:39:54;;;;;;;;;21.25;17.50;;;;;;;;5077563;28;45952;-71
2022/01/26 05:42:20;;;;;;;;;23.75;18.25;;;;;;;;5076280;27;45509;-70
2022/01/26 05:44:45;;;;;;;;;18.75;17.75;;;;;;;;5077017;27;45584;-70
2022/01/26 05:47:16;;;;;;;;;20.25;18.25;;;;;;;;5076616;28;45288;-71
2022/01/26 05:49:41;;;;;;;;;21.00;18.25;;;;;;;;5076196;28;45437;-70
2022/01/26 05:52:06;;;;;;;;;21.75;17.25;;;;;;;;5076252;28;45623;-70
2022/01/26 05:54:31;;;;;;;;;19.50;17.00;;;;;;;;5078283;27;45537;-70
2022/01/26 05:56:57;;;;;;;;;18.25;18.25;;;;;;;;5076517;28;45280;-70
2022/01/26 05:59:22;;;;;;;;;16.50;16.25;;;;;;;;5076084;27;45470;-70
2022/01/26 06:01:48;;;;;;;;;21.00;20.25;;;;;;;;5076121;27;45384;-69
2022/01/26 06:04:13;;;;;;;;;22.25;18.50;;;;;;;;5078878;27;45311;-70
2022/01/26 06:06:38;;;;;;;;;24.00;20.25;;;;;;;;5085867;27;45455;-70
2022/01/26 06:09:03;;;;;;;;;19.25;17.25;;;;;;;;5081328;27;47559;-70
2022/01/26 06:11:29;;;;;;;;;21.25;20.25;;;;;;;;5082217;27;45434;-70
2022/01/26 06:13:55;;;;;;;;;19.75;18.00;;;;;;;;5078540;27;45529;-69
2022/01/26 06:16:20;;;;;;;;;18.50;16.25;;;;;;;;5078970;27;45277;-70
2022/01/26 06:18:45;;;;;;;;;22.50;19.75;;;;;;;;5077669;27;46049;-70
2022/01/26 06:21:10;;;;;;;;;20.00;18.25;;;;;;;;5078919;27;45268;-69
2022/01/26 06:23:36;;;;;;;;;18.50;16.75;;;;;;;;5078441;27;45372;-70
2022/01/26 06:26:01;;;;;;;;;20.00;17.00;;;;;;;;5078892;27;45559;-70
2022/01/26 06:28:27;;;;;;;;;19.25;16.00;;;;;;;;5078549;27;46113;-70
2022/01/26 06:30:59;;;;;;;;;16.00;16.00;;;;;;;;5078173;27;45386;-69
2022/01/26 06:33:25;;;;;;;;;19.25;17.25;;;;;;;;5083641;27;45395;-69
2022/01/26 06:35:50;;;;;;;;;19.75;16.50;;;;;;;;5077768;27;45548;-70
2022/01/26 06:38:16;;;;;;;;;19.25;17.00;;;;;;;;5077888;27;45314;-69
2022/01/26 06:40:41;;;;;;;;;14.25;13.25;;;;;;;;5074058;27;45388;-69
2022/01/26 06:43:11;;;;;;;;;20.00;17.25;;;;;;;;5076076;28;45419;-70
2022/01/26 06:45:43;;;;;;;;;19.50;17.00;;;;;;;;5077791;27;45264;-70
2022/01/26 06:48:28;;;;;;;;;18.00;16.00;;;;;;;;5077099;27;46063;-69
2022/01/26 06:50:53;;;;;;;;;16.00;16.00;;;;;;;;5073625;28;45265;-69
2022/01/26 06:53:19;;;;;;;;;18.75;15.75;;;;;;;;5079053;27;45442;-70
2022/01/26 06:55:44;;;;;;;;;20.75;18.50;;;;;;;;5091012;27;45480;-69
2022/01/26 06:58:09;;;;;;;;;20.75;16.75;;;;;;;;5075993;27;46208;-69
2022/01/26 07:00:34;;;;;;;;;18.50;17.50;;;;;;;;5077421;28;45351;-69
2022/01/26 07:02:59;;;;;;;;;19.75;17.25;;;;;;;;5084057;27;45457;-70
2022/01/26 07:05:25;;;;;;;;;22.75;17.00;;;;;;;;5083361;27;45405;-70
2022/01/26 07:07:50;;;;;;;;;17.50;17.00;;;;;;;;5053978;28;46420;-70
2022/01/26 07:10:15;;;;;;;;;22.25;18.00;;;;;;;;5084686;27;45489;-70
2022/01/26 07:12:41;;;;;;;;;19.25;14.75;;;;;;;;5088071;27;45463;-70
2022/01/26 07:22:59;;;;;;;;;15.75;12.75;;;;;;;;5078030;27;45773;-69
2022/01/26 07:25:25;;;;;;;;;21.75;18.25;;;;;;;;5074749;28;45455;-69
2022/01/26 07:27:51;;;;;;;;;17.75;16.75;;;;;;;;5075651;28;45574;-69
2022/01/26 07:30:17;;;;;;;;;18.50;15.75;;;;;;;;5076290;28;45919;-69
2022/01/26 07:32:42;;;;;;;;;17.25;15.75;;;;;;;;5075940;27;45857;-68
2022/01/26 07:35:07;;;;;;;;;19.00;16.25;;;;;;;;5074276;28;45405;-69
2022/01/26 07:37:32;;;;;;;;;25.50;22.00;;;;;;;;5078759;27;45974;-68
2022/01/26 07:40:06;;;;;;;;;17.00;15.75;;;;;;;;5076791;27;45237;-70
2022/01/26 07:42:32;;;;;;;;;15.25;14.75;;;;;;;;5073341;28;45353;-71
2022/01/26 07:44:57;;;;;;;;;16.00;16.00;;;;;;;;5076198;27;45441;-71
2022/01/26 07:47:23;;;;;;;;;19.00;17.00;;;;;;;;5076458;27;47170;-71
2022/01/26 07:49:49;;;;;;;;;22.75;19.25;;;;;;;;5075872;27;45466;-71
2022/01/26 07:52:15;;;;;;;;;17.50;16.25;;;;;;;;5074271;28;45424;-71
2022/01/26 07:54:40;;;;;;;;;17.75;16.50;;;;;;;;5074361;27;45553;-69
2022/01/26 07:57:08;;;;;;;;;18.00;15.75;;;;;;;;5070657;27;46294;-73
2022/01/26 07:59:33;;;;;;;;;16.50;15.50;;;;;;;;5074314;28;45376;-72
2022/01/26 08:01:58;;;;;;;;;19.25;18.00;;;;;;;;5072548;27;45278;-72
2022/01/26 08:04:24;;;;;;;;;19.75;16.25;;;;;;;;5072649;28;45547;-71
2022/01/26 08:06:50;;;;;;;;;21.00;18.25;;;;;;;;5076023;27;47137;-71
2022/01/26 08:09:15;;;;;;;;;19.00;17.50;;;;;;;;5073622;27;45657;-70
2022/01/26 08:11:41;;;;;;;;;21.50;17.50;;;;;;;;5074306;28;45420;-70
2022/01/26 08:14:06;;;;;;;;;17.75;17.25;;;;;;;;5076528;27;45426;-71
2022/01/26 08:16:31;;;;;;;;;15.00;14.00;;;;;;;;5075898;28;46157;-70
2022/01/26 08:18:57;;;;;;;;;15.25;15.25;;;;;;;;5075791;27;45606;-71
2022/01/26 08:21:22;;;;;;;;;15.75;15.00;;;;;;;;5076514;28;45406;-70
2022/01/26 08:23:48;;;;;;;;;20.25;18.50;;;;;;;;5083011;27;45498;-71
2022/01/26 08:26:17;;;;;;;;;18.25;14.50;;;;;;;;5079993;27;47058;-71
2022/01/26 08:28:48;;;;;;;;;15.75;14.75;;;;;;;;5075947;27;45426;-71
2022/01/26 08:31:13;;;;;;;;;14.00;11.25;;;;;;;;5072555;28;45388;-71
2022/01/26 08:33:39;;;;;;;;;19.25;17.00;;;;;;;;5075252;28;45450;-71
2022/01/26 08:36:04;;;;;;;;;17.25;16.75;;;;;;;;5074509;27;46288;-71
2022/01/26 08:38:29;;;;;;;;;15.25;13.50;;;;;;;;5072390;28;45605;-71
2022/01/26 08:40:54;;;;;;;;;16.00;15.00;;;;;;;;5073806;28;45387;-71
2022/01/26 08:43:20;;;;;;;;;21.25;19.50;;;;;;;;5074159;28;45333;-71
2022/01/26 08:45:45;;;;;;;;;19.00;17.25;;;;;;;;5076290;27;45335;-71
2022/01/26 08:48:11;;;;;;;;;18.50;16.00;;;;;;;;5073436;28;45382;-70
2022/01/26 08:50:36;;;;;;;;;21.75;18.00;;;;;;;;5073543;27;45441;-71
2022/01/26 08:53:01;;;;;;;;;21.50;16.25;;;;;;;;5077603;27;45472;-71
2022/01/26 08:55:27;;;;;;;;;16.00;14.00;;;;;;;;5073436;28;45613;-70
2022/01/26 08:57:52;;;;;;;;;19.00;16.50;;;;;;;;5075248;28;45396;-70
2022/01/26 09:00:17;;;;;;;;;19.25;15.50;;;;;;;;5073462;27;45490;-71
2022/01/26 09:02:43;;;;;;;;;18.75;18.00;;;;;;;;5073312;27;45451;-70
2022/01/26 09:05:09;;;;;;;;;22.75;16.50;;;;;;;;5080764;27;46057;-70
2022/01/26 09:07:34;;;;;;;;;15.25;14.75;;;;;;;;5074399;27;45395;-70
2022/01/26 09:10:01;;;;;;;;;19.25;16.00;;;;;;;;5074729;28;45338;-70
2022/01/26 09:12:27;;;;;;;;;20.75;18.75;;;;;;;;5079383;27;45458;-71
2022/01/26 09:14:53;;;;;;;;;18.00;14.00;;;;;;;;5075659;27;47496;-70
2022/01/26 09:17:19;;;;;;;;;16.25;15.75;;;;;;;;5074015;27;45328;-70
2022/01/26 09:19:45;;;;;;;;;15.00;15.00;;;;;;;;5073471;28;45296;-70
2022/01/26 09:22:12;;;;;;;;;16.50;15.75;;;;;;;;5073379;28;45601;-70
2022/01/26 09:24:38;;;;;;;;;17.25;14.25;;;;;;;;5075256;28;47228;-70
2022/01/26 09:27:04;;;;;;;;;17.00;16.75;;;;;;;;5074376;27;45362;-74
2022/01/26 09:29:29;;;;;;;;;19.00;17.75;;;;;;;;5079366;27;45654;-74
2022/01/26 09:31:55;;;;;;;;;17.00;16.50;;;;;;;;5078382;27;45363;-74
2022/01/26 09:34:21;;;;;;;;;18.25;16.00;;;;;;;;5072022;28;46256;-74
2022/01/26 09:36:48;;;;;;;;;16.00;15.00;;;;;;;;5057512;27;45641;-74
2022/01/26 09:39:14;;;;;;;;;17.00;16.00;;;;;;;;5072018;27;46745;-73
2022/01/26 09:41:40;;;;;;;;;20.50;13.25;;;;;;;;5075505;27;45303;-73
2022/01/26 09:44:07;;;;;;;;;18.25;16.50;;;;;;;;5081462;27;46371;-73
2022/01/26 09:46:32;;;;;;;;;16.75;13.50;;;;;;;;5074235;27;45449;-74
2022/01/26 09:48:57;;;;;;;;;17.50;15.25;;;;;;;;5075108;28;45359;-73
2022/01/26 09:51:23;;;;;;;;;13.00;11.00;;;;;;;;5074976;28;45343;-73
2022/01/26 09:54:02;;;;;;;;;17.25;16.25;;;;;;;;5074238;27;46973;-73
2022/01/26 09:56:28;;;;;;;;;21.25;18.50;;;;;;;;5073207;28;45339;-74
2022/01/26 09:58:53;;;;;;;;;17.25;17.25;;;;;;;;5079796;27;45453;-73
2022/01/26 10:01:18;;;;;;;;;19.25;15.50;;;;;;;;5072966;27;45285;-74
2022/01/26 10:03:44;;;;;;;;;17.25;17.25;;;;;;;;5070767;28;46122;-74
2022/01/26 10:06:18;;;;;;;;;16.25;16.00;;;;;;;;5071718;27;45449;-73
2022/01/26 10:19:05;;;;;;;;;18.50;16.75;;;;;;;;5076917;28;45373;-74
2022/01/26 10:21:30;;;;;;;;;16.00;16.00;;;;;;;;5076900;27;45435;-73
2022/01/26 10:24:07;;;;;;;;;19.50;17.25;;;;;;;;5083367;27;46070;-73
2022/01/26 10:26:32;;;;;;;;;19.25;16.25;;;;;;;;5078248;27;48203;-74
2022/01/26 10:28:59;;;;;;;;;19.00;16.00;;;;;;;;5075457;28;45454;-74
2022/01/26 10:31:24;;;;;;;;;17.50;16.00;;;;;;;;5077642;27;45296;-74
2022/01/26 10:34:09;;;;;;;;;21.25;18.25;;;;;;;;5077555;28;46219;-73
2022/01/26 10:36:41;;;;;;;;;18.50;16.75;;;;;;;;5076356;27;45465;-74
2022/01/26 10:39:08;;;;;;;;;17.75;15.75;;;;;;;;5075153;28;45513;-71
2022/01/26 10:41:34;;;;;;;;;18.75;14.50;;;;;;;;5079419;27;45530;-70
2022/01/26 10:44:01;;;;;;;;;17.00;13.00;;;;;;;;5076016;27;46410;-77
2022/01/26 10:46:39;;;;;;;;;16.75;16.00;;;;;;;;5076123;27;45474;-70
2022/01/26 10:49:15;;;;;;;;;21.00;17.75;;;;;;;;5076111;28;45502;-77
2022/01/26 10:57:01;;;;;;;;;15.25;15.25;;;;;;;;5076903;27;45421;-71
2022/01/26 10:59:26;;;;;;;;;18.00;16.50;;;;;;;;5074108;27;45316;-71
2022/01/26 11:01:52;;;;;;;;;18.25;16.00;;;;;;;;5074399;27;45256;-72
2022/01/26 11:04:17;;;;;;;;;16.00;15.00;;;;;;;;5091029;27;46734;-71
2022/01/26 11:06:48;;;;;;;;;16.25;15.50;;;;;;;;5059113;27;45491;-73
2022/01/26 11:09:16;;;;;;;;;18.50;15.50;;;;;;;;5074900;27;45703;-71
2022/01/26 11:11:41;;;;;;;;;18.25;17.00;;;;;;;;5075299;28;45301;-73
2022/01/26 11:14:13;;;;;;;;;16.75;15.00;;;;;;;;5073630;28;46932;-73
2022/01/26 11:16:47;;;;;;;;;15.50;15.00;;;;;;;;5064259;28;45665;-73
2022/01/26 11:19:13;;;;;;;;;19.00;16.25;;;;;;;;5076306;27;45380;-73
2022/01/26 11:21:39;;;;;;;;;16.50;16.00;;;;;;;;5076780;27;45494;-73
2022/01/26 11:24:08;;;;;;;;;19.75;18.50;;;;;;;;5082997;27;47316;-73
2022/01/26 11:26:33;;;;;;;;;20.75;18.75;;;;;;;;5080202;27;45473;-72
2022/01/26 11:29:00;;;;;;;;;23.75;18.50;;;;;;;;5074698;28;45532;-72
2022/01/26 11:31:25;;;;;;;;;22.50;17.50;;;;;;;;5075213;27;45481;-73
2022/01/26 11:33:50;;;;;;;;;22.75;18.50;;;;;;;;5076458;27;45914;-72
2022/01/26 11:36:18;;;;;;;;;21.25;19.25;;;;;;;;5073918;27;45382;-73
2022/01/26 11:47:04;;;;;;;;;21.75;19.00;;;;;;;;5074166;28;45501;-72
2022/01/26 11:49:34;;;;;;;;;23.50;19.50;;;;;;;;5074311;28;45285;-71
2022/01/26 11:51:59;;;;;;;;;19.25;17.00;;;;;;;;5075300;28;45373;-71
2022/01/26 11:54:26;;;;;;;;;16.75;14.50;;;;;;;;5075857;28;45251;-71
2022/01/26 11:56:57;;;;;;;;;22.50;17.75;;;;;;;;5074339;27;45414;-71
2022/01/26 11:59:24;;;;;;;;;20.00;17.25;;;;;;;;5072528;28;45437;-71
2022/01/26 12:01:57;;;;;;;;;17.25;16.50;;;;;;;;5075406;27;45522;-71
2022/01/26 12:04:24;;;;;;;;;21.25;16.25;;;;;;;;5056967;28;46230;-71
2022/01/26 12:06:57;;;;;;;;;19.75;18.00;;;;;;;;5075723;27;45301;-71
2022/01/26 12:09:23;;;;;;;;;16.75;14.75;;;;;;;;5073742;28;45588;-71
2022/01/26 12:11:52;;;;;;;;;18.50;18.50;;;;;;;;5072290;28;45467;-71
2022/01/26 12:14:20;;;;;;;;;20.25;19.00;;;;;;;;5071492;28;47253;-71
2022/01/26 12:16:48;;;;;;;;;19.00;17.50;;;;;;;;5073130;27;45383;-71
2022/01/26 12:33:52;;;;;;;;;19.00;17.50;;;;;;;;5072184;28;45247;-72
2022/01/26 12:36:26;;;;;;;;;20.50;17.00;;;;;;;;5071613;28;46372;-73
2022/01/26 12:38:58;;;;;;;;;14.75;14.50;;;;;;;;5073893;28;45428;-73
2022/01/26 12:43:53;;;;;;;;;17.25;14.25;;;;;;;;5075686;27;45600;-71
2022/01/26 12:46:26;;;;;;;;;19.00;15.00;;;;;;;;5076331;27;46437;-71
2022/01/26 12:48:52;;;;;;;;;14.75;11.00;;;;;;;;5071559;27;45434;-71
2022/01/26 12:51:18;;;;;;;;;18.25;16.25;;;;;;;;5073160;28;45513;-71
2022/01/26 12:53:43;;;;;;;;;16.00;14.50;;;;;;;;5073623;27;45411;-71
2022/01/26 12:56:12;;;;;;;;;18.00;15.00;;;;;;;;5082406;27;46240;-70
2022/01/26 12:58:39;;;;;;;;;16.25;14.25;;;;;;;;5073925;27;45534;-72
2022/01/26 13:01:08;;;;;;;;;17.25;16.75;;;;;;;;5073665;28;45812;-72
2022/01/26 13:03:36;;;;;;;;;13.75;12.00;;;;;;;;5075582;28;45578;-71
2022/01/26 13:06:08;;;;;;;;;18.00;16.50;;;;;;;;5073201;27;46483;-71
2022/01/26 13:08:49;;;;;;;;;18.25;16.50;;;;;;;;5072756;28;45466;-71
2022/01/26 13:11:22;;;;;;;;;15.00;14.25;;;;;;;;5073017;27;45671;-71
2022/01/26 13:13:47;;;;;;;;;17.25;14.00;;;;;;;;5073352;28;45450;-71
2022/01/26 13:16:17;;;;;;;;;16.50;13.25;;;;;;;;5075866;27;46369;-71
2022/01/26 13:26:58;;;;;;;;;16.25;14.50;;;;;;;;5074425;27;45468;-71
2022/01/26 13:37:52;;;;;;;;;12.75;12.00;;;;;;;;5061182;27;45327;-71
2022/01/26 13:40:24;;;;;;;;;15.50;14.25;;;;;;;;5071491;28;45373;-71
2022/01/26 13:43:29;;;;;;;;;15.00;13.25;;;;;;;;5071182;28;45343;-71
2022/01/26 13:53:22;;;;;;;;;13.75;13.25;;;;;;;;5082878;27;45543;-71
2022/01/26 13:56:06;;;;;;;;;13.50;11.75;;;;;;;;5075160;28;45494;-71
2022/01/26 13:58:48;;;;;;;;;17.50;11.50;;;;;;;;5073597;27;47098;-71
2022/01/26 14:01:19;;;;;;;;;14.75;13.00;;;;;;;;5076222;28;45422;-70
2022/01/26 14:03:49;;;;;;;;;13.25;11.50;;;;;;;;5078603;27;45313;-71
2022/01/26 14:06:14;;;;;;;;;15.00;12.00;;;;;;;;5078863;27;45573;-71
2022/01/26 14:08:41;;;;;;;;;14.75;12.25;;;;;;;;5080149;27;45549;-71
2022/01/26 14:11:06;;;;;;;;;12.50;10.50;;;;;;;;5073866;28;45536;-71
2022/01/26 14:13:31;;;;;;;;;15.25;10.75;;;;;;;;5073925;28;45418;-71
2022/01/26 14:15:59;;;;;;;;;12.25;12.25;;;;;;;;5077318;28;45409;-71
2022/01/26 14:20:56;;;;;;;;;11.00;10.75;;;;;;;;5074208;27;45537;-71
2022/01/26 14:25:57;;;;;;;;;11.75;11.75;;;;;;;;5073767;27;45576;-71
2022/01/26 14:28:29;;;;;;;;;13.25;11.50;;;;;;;;5074244;27;47060;-71
2022/01/26 14:33:42;;;;;;;;;10.00;10.00;;;;;;;;5083148;27;45494;-71
2022/01/26 14:55:29;;;;;;;;;13.75;13.00;;;;;;;;5033585;28;45475;-71
2022/01/26 15:19:46;;;;;;;;;12.00;10.25;;;;;;;;5031339;28;45850;-72
2022/01/26 15:30:14;;;;;;;;;11.00;11.00;;;;;;;;5076339;27;45569;-71
2022/01/26 15:40:46;;;;;;;;;13.50;9.25;;;;;;;;5059414;28;45438;-71
2022/01/26 15:50:56;;;;;;;;;11.25;11.25;;;;;;;;5074325;28;45307;-72
2022/01/26 16:07:00;;;;;;;;;13.00;9.75;;;;;;;;5018234;28;45313;-71
2022/01/26 16:38:56;;;;;;;;;8.75;8.25;;;;;;;;4992855;28;45373;-71
2022/01/26 16:52:59;;;;;;;;;10.75;9.00;;;;;;;;4961877;28;45457;-71
2022/01/26 17:47:03;;;;;;;;;8.25;8.25;;;;;;;;5011720;28;45448;-73
2022/01/26 18:17:00;;;;;;;;;8.00;8.00;;;;;;;;5072546;28;45410;-72
2022/01/26 18:33:15;;;;;;;;;8.00;8.00;;;;;;;;4998509;28;45222;-71
2022/01/26 18:46:52;;;;;;;;;9.00;8.25;;;;;;;;4994668;28;45972;-71
2022/01/26 18:49:21;;;;;;;;;9.25;8.00;;;;;;;;5007861;28;45424;-72
2022/01/26 18:51:53;;;;;;;;;12.00;8.75;;;;;;;;4993872;28;45410;-71
2022/01/26 18:54:21;;;;;;;;;8.50;8.50;;;;;;;;4999223;28;45574;-71
2022/01/26 18:56:46;;;;;;;;;11.75;10.00;;;;;;;;4998200;28;46276;-71
2022/01/26 18:59:12;;;;;;;;;8.25;7.75;;;;;;;;4996062;28;45429;-71
2022/01/26 19:01:38;;;;;;;;;7.75;7.75;;;;;;;;5005771;28;45538;-71
2022/01/26 19:04:03;;;;;;;;;10.25;10.00;;;;;;;;5010726;28;45435;-71
2022/01/26 19:06:28;;;;;;;;;6.75;6.75;;;;;;;;5009544;28;46126;-71
2022/01/26 19:08:54;;;;;;;;;10.75;9.25;;;;;;;;5001850;28;45428;-71
2022/01/26 19:11:21;;;;;;;;;7.50;7.50;;;;;;;;5065053;28;45432;-71
2022/01/26 19:13:47;;;;;;;;;10.75;9.25;;;;;;;;5063224;28;45381;-71
2022/01/26 19:16:41;;;;;;;;;7.00;6.50;;;;;;;;5074814;28;46820;-71
2022/01/26 19:26:29;;;;;;;;;9.75;8.75;;;;;;;;5072396;28;45224;-71
2022/01/26 19:29:02;;;;;;;;;9.00;9.00;;;;;;;;5073289;27;45450;-71
2022/01/26 19:53:06;;;;;;;;;9.75;9.25;;;;;;;;5014208;28;45626;-71
2022/01/26 19:55:31;;;;;;;;;8.50;7.00;;;;;;;;5014781;28;45752;-71
2022/01/26 19:57:59;;;;;;;;;11.75;10.00;;;;;;;;5017035;28;46483;-71
2022/01/26 20:00:24;;;;;;;;;7.50;7.50;;;;;;;;5009626;28;45467;-71
2022/01/26 20:02:49;;;;;;;;;12.50;11.00;;;;;;;;5015058;28;45320;-71
2022/01/26 20:05:16;;;;;;;;;10.00;8.00;;;;;;;;5021809;28;45649;-71
2022/01/26 20:07:43;;;;;;;;;9.25;7.00;;;;;;;;5013489;28;46014;-71
2022/01/26 20:10:10;;;;;;;;;10.00;10.00;;;;;;;;5022768;28;45581;-71
2022/01/26 20:12:44;;;;;;;;;9.00;7.00;;;;;;;;5016059;28;45479;-71
2022/01/26 20:15:10;;;;;;;;;11.00;8.00;;;;;;;;5013928;28;45352;-71
2022/01/26 20:17:35;;;;;;;;;12.00;9.75;;;;;;;;5011665;28;46708;-71
2022/01/26 20:20:00;;;;;;;;;7.50;7.00;;;;;;;;5006964;28;45320;-71
2022/01/26 20:22:26;;;;;;;;;12.25;8.00;;;;;;;;5054192;28;45486;-71
2022/01/26 20:24:51;;;;;;;;;9.00;7.75;;;;;;;;5076201;27;45384;-71
2022/01/26 20:27:20;;;;;;;;;10.50;9.50;;;;;;;;5075785;27;45209;-71
2022/01/26 20:29:49;;;;;;;;;13.50;10.25;;;;;;;;5074120;28;45572;-71
2022/01/26 20:32:15;;;;;;;;;10.00;9.00;;;;;;;;5074282;28;45456;-71
2022/01/26 20:34:41;;;;;;;;;9.75;6.25;;;;;;;;5070506;28;45537;-71
2022/01/26 20:37:06;;;;;;;;;10.00;9.00;;;;;;;;5072897;28;46142;-71
2022/01/26 20:39:31;;;;;;;;;12.50;9.00;;;;;;;;5073379;28;45272;-71
2022/01/26 20:41:56;;;;;;;;;8.50;8.00;;;;;;;;5073766;28;45419;-71
2022/01/26 20:44:22;;;;;;;;;11.00;10.25;;;;;;;;5073611;28;45774;-71
2022/01/26 20:46:47;;;;;;;;;14.00;10.00;;;;;;;;5073380;27;45557;-71
2022/01/26 20:49:12;;;;;;;;;10.50;8.00;;;;;;;;5075476;27;45443;-71
2022/01/26 20:51:37;;;;;;;;;10.00;10.00;;;;;;;;5076254;28;45457;-71
2022/01/26 20:54:03;;;;;;;;;12.00;12.00;;;;;;;;5073438;28;45483;-71
2022/01/26 20:56:29;;;;;;;;;8.75;8.25;;;;;;;;5072740;27;47068;-71
2022/01/26 20:58:54;;;;;;;;;10.00;10.00;;;;;;;;5071988;28;45473;-72
2022/01/26 21:01:19;;;;;;;;;8.50;8.50;;;;;;;;5073172;28;45383;-72
2022/01/26 21:03:45;;;;;;;;;15.00;9.75;;;;;;;;5075472;28;45528;-72
2022/01/26 21:06:10;;;;;;;;;5.25;5.25;;;;;;;;5075498;27;45998;-71
2022/01/26 21:08:38;;;;;;;;;8.50;8.50;;;;;;;;5074168;27;45321;-71
2022/01/26 21:11:03;;;;;;;;;10.25;10.25;;;;;;;;5073549;28;45442;-72
2022/01/26 21:13:28;;;;;;;;;10.75;8.50;;;;;;;;5072699;27;45387;-71
2022/01/26 21:15:54;;;;;;;;;11.25;9.50;;;;;;;;5074911;28;45447;-70
2022/01/26 21:18:19;;;;;;;;;10.25;9.25;;;;;;;;5072414;28;45386;-70
2022/01/26 21:20:45;;;;;;;;;9.75;8.25;;;;;;;;5072441;27;45458;-71
2022/01/26 21:23:10;;;;;;;;;9.00;9.00;;;;;;;;5069500;28;45548;-71
2022/01/26 21:25:36;;;;;;;;;25.50;24.25;;;;;;;;5070474;28;45958;-71